Time;durP1;ratioP1;P1;durP2;ratioP2;P2;SDS_P1;SDS_P2;PMS_P1;PMS_P2;Temp;Humidity;BMP_temperature;BMP_pressure;BME280_temperature;BME280_humidity;BME280_pressure;Samples;Min_cycle;Max_cycle;Signal;HPM_P1;HPM_P2
2023/06/10 00:00:06;;;;;;;365.88;235.00;;;;;;;20.74;85.48;99014.00;348602;28;1015;-75
2023/06/10 00:00:17;;;;;;;366.50;236.15;;;;;;;20.74;85.66;99019.31;347390;28;1062;-75
2023/06/10 00:00:27;;;;;;;367.23;233.93;;;;;;;20.74;86.10;99016.66;349064;28;1812;-75
2023/06/10 00:00:41;;;;;;;367.45;232.55;;;;;;;20.74;85.88;99013.16;348653;28;1252;-75
2023/06/10 00:00:51;;;;;;;367.60;230.63;;;;;;;20.73;85.57;99022.94;346788;28;1061;-75
2023/06/10 00:01:02;;;;;;;366.57;229.73;;;;;;;20.72;85.71;99015.94;346034;28;1284;-75
2023/06/10 00:01:12;;;;;;;366.13;227.93;;;;;;;20.72;85.42;99021.25;347057;28;888;-75
2023/06/10 00:01:23;;;;;;;366.60;229.07;;;;;;;20.73;85.38;99014.13;346013;28;876;-75
2023/06/10 00:01:36;;;;;;;365.58;228.63;;;;;;;20.73;85.80;99019.44;345967;28;1446;-75
2023/06/10 00:01:49;;;;;;;364.45;228.20;;;;;;;20.74;86.01;99013.16;345992;28;1327;-75
2023/06/10 00:01:59;;;;;;;362.05;227.25;;;;;;;20.74;85.48;99019.31;343014;28;1805;-75
2023/06/10 00:02:10;;;;;;;360.77;230.68;;;;;;;20.75;85.82;99020.97;345740;28;1232;-75
2023/06/10 00:02:20;;;;;;;358.13;226.87;;;;;;;20.74;85.36;99024.63;347615;28;1165;-75
2023/06/10 00:02:31;;;;;;;359.48;228.68;;;;;;;20.74;85.59;99011.31;345946;28;1050;-75
2023/06/10 00:02:42;;;;;;;361.00;229.37;;;;;;;20.74;85.72;99014.00;345788;28;1066;-75
2023/06/10 00:02:52;;;;;;;364.45;231.02;;;;;;;20.73;85.57;99014.97;346503;28;1299;-75
2023/06/10 00:03:03;;;;;;;363.07;228.47;;;;;;;20.71;85.61;99013.44;345876;28;1398;-75
2023/06/10 00:03:14;;;;;;;360.37;224.47;;;;;;;20.70;85.65;99015.25;343279;28;1180;-75
2023/06/10 00:03:25;;;;;;;360.23;227.65;;;;;;;20.70;85.58;99015.25;343007;28;904;-75
2023/06/10 00:03:36;;;;;;;363.27;231.77;;;;;;;20.69;85.59;99015.38;343285;28;1529;-75
2023/06/10 00:03:46;;;;;;;366.30;235.43;;;;;;;20.69;85.68;99016.22;345043;28;1752;-75
2023/06/10 00:03:57;;;;;;;367.75;235.25;;;;;;;20.70;85.58;99017.91;345658;28;1595;-75
2023/06/10 00:04:07;;;;;;;368.23;235.40;;;;;;;20.69;85.53;99021.53;343647;28;1900;-75
2023/06/10 00:04:17;;;;;;;369.65;234.68;;;;;;;20.68;85.71;99019.03;341943;28;1308;-75
2023/06/10 00:04:28;;;;;;;368.53;233.23;;;;;;;20.68;85.57;99017.22;336370;29;732;-75
2023/06/10 00:04:38;;;;;;;367.45;236.38;;;;;;;20.71;85.56;99019.59;336297;29;1499;-75
2023/06/10 00:04:49;;;;;;;365.77;236.00;;;;;;;20.70;85.46;99017.06;336789;29;1332;-75
2023/06/10 00:05:00;;;;;;;363.90;236.13;;;;;;;20.71;85.68;99019.59;340574;29;1426;-75
2023/06/10 00:05:10;;;;;;;365.55;231.13;;;;;;;20.70;85.45;99014.41;339259;29;1687;-75
2023/06/10 00:05:21;;;;;;;365.60;232.53;;;;;;;20.70;85.50;99017.06;338946;28;1919;-75
2023/06/10 00:05:31;;;;;;;366.27;231.07;;;;;;;20.70;85.63;99015.25;337218;29;1794;-75
2023/06/10 00:05:42;;;;;;;365.90;233.50;;;;;;;20.69;85.17;99018.88;336493;29;1403;-75
2023/06/10 00:05:52;;;;;;;366.33;232.77;;;;;;;20.68;85.85;99014.53;337326;29;835;-75
2023/06/10 00:06:03;;;;;;;365.95;233.20;;;;;;;20.68;85.56;99014.53;336625;29;1082;-75
2023/06/10 00:06:13;;;;;;;363.08;230.93;;;;;;;20.70;85.22;99017.06;340663;29;888;-75
2023/06/10 00:06:24;;;;;;;363.87;231.70;;;;;;;20.70;85.45;99019.72;340209;28;1481;-75
2023/06/10 00:06:37;;;;;;;362.45;230.80;;;;;;;20.69;85.10;99020.72;337905;29;1886;-75
2023/06/10 00:06:49;;;;;;;360.77;229.88;;;;;;;20.68;85.20;99019.88;335406;29;1350;-76
2023/06/10 00:07:00;;;;;;;360.60;229.73;;;;;;;20.69;85.46;99023.38;328080;29;3123;-76
2023/06/10 00:07:10;;;;;;;363.67;234.80;;;;;;;20.69;85.79;99021.53;329075;29;5192;-75
2023/06/10 00:07:21;;;;;;;366.17;235.33;;;;;;;20.70;85.44;99020.56;334589;29;3298;-75
2023/06/10 00:07:31;;;;;;;369.55;239.60;;;;;;;20.69;85.58;99016.22;334071;29;1239;-75
2023/06/10 00:07:42;;;;;;;370.27;237.60;;;;;;;20.69;85.28;99018.03;329301;29;3288;-76
2023/06/10 00:07:55;;;;;;;369.40;237.15;;;;;;;20.69;85.55;99026.88;328812;29;1015;-75
2023/06/10 00:08:08;;;;;;;364.30;230.38;;;;;;;20.71;85.51;99016.09;329596;29;1440;-77
2023/06/10 00:08:19;;;;;;;362.75;226.18;;;;;;;20.70;85.40;99020.56;327877;29;1633;-76
2023/06/10 00:08:31;;;;;;;362.17;227.60;;;;;;;20.71;85.24;99016.94;329253;30;824;-76
2023/06/10 00:08:42;;;;;;;362.55;231.40;;;;;;;20.72;85.23;99020.44;332948;29;2037;-75
2023/06/10 00:08:53;;;;;;;363.40;233.82;;;;;;;20.68;85.14;99017.22;331216;29;2264;-75
2023/06/10 00:09:10;;;;;;;364.48;235.40;;;;;;;20.69;85.33;99026.03;325485;29;5023;-75
2023/06/10 00:09:23;;;;;;;364.27;234.73;;;;;;;20.66;85.49;99015.66;324716;30;2809;-76
2023/06/10 00:09:37;;;;;;;362.33;229.40;;;;;;;20.66;85.59;99015.66;319953;30;2846;-75
2023/06/10 00:09:48;;;;;;;360.95;228.00;;;;;;;20.67;85.82;99023.50;323135;30;1358;-75
2023/06/10 00:09:59;;;;;;;359.77;229.68;;;;;;;20.67;85.59;99020.84;320765;30;1241;-75
2023/06/10 00:10:10;;;;;;;362.88;233.50;;;;;;;20.67;85.69;99018.19;323915;30;1504;-75
2023/06/10 00:10:21;;;;;;;366.65;236.25;;;;;;;20.66;85.51;99027.16;322257;30;2140;-75
2023/06/10 00:10:31;;;;;;;366.40;236.37;;;;;;;20.65;85.49;99020.16;320477;30;1564;-75
2023/06/10 00:10:42;;;;;;;366.53;236.70;;;;;;;20.64;85.36;99020.28;314495;30;2566;-76
2023/06/10 00:10:52;;;;;;;366.70;234.00;;;;;;;20.63;85.66;99016.78;312491;31;2855;-76
2023/06/10 00:11:03;;;;;;;366.10;230.60;;;;;;;20.62;85.56;99023.09;311626;31;1241;-75
2023/06/10 00:11:13;;;;;;;365.63;229.60;;;;;;;20.63;85.97;99022.09;308325;32;808;-75
2023/06/10 00:11:23;;;;;;;365.88;232.52;;;;;;;20.62;85.86;99020.44;307928;31;3283;-75
2023/06/10 00:11:34;;;;;;;368.60;236.83;;;;;;;20.62;85.88;99023.09;306926;31;3808;-75
2023/06/10 00:11:44;;;;;;;367.88;237.32;;;;;;;20.64;85.57;99012.31;307392;32;887;-77
2023/06/10 00:11:55;;;;;;;366.70;236.90;;;;;;;20.64;85.63;99022.94;307324;32;3343;-75
2023/06/10 00:12:06;;;;;;;366.70;238.00;;;;;;;20.63;85.83;99021.28;307086;32;2448;-75
2023/06/10 00:12:17;;;;;;;365.25;238.07;;;;;;;20.63;85.65;99021.28;306016;32;1507;-74
2023/06/10 00:12:28;;;;;;;364.23;236.75;;;;;;;20.64;85.64;99017.63;298847;33;1694;-74
2023/06/10 00:12:40;;;;;;;364.70;236.75;;;;;;;20.64;85.53;99018.47;296895;33;2999;-74
2023/06/10 00:12:51;;;;;;;367.92;234.80;;;;;;;20.64;85.66;99017.63;295992;32;3567;-74
2023/06/10 00:13:03;;;;;;;368.40;234.45;;;;;;;20.64;85.54;99021.13;298922;32;4813;-74
2023/06/10 00:13:14;;;;;;;364.88;234.50;;;;;;;20.65;85.44;99020.16;297929;33;940;-76
2023/06/10 00:13:25;;;;;;;365.30;237.00;;;;;;;20.63;85.90;99019.44;296264;33;4543;-76
2023/06/10 00:13:35;;;;;;;366.23;236.25;;;;;;;20.62;85.70;99015.09;297354;33;4707;-75
2023/06/10 00:13:45;;;;;;;368.80;237.93;;;;;;;20.63;85.81;99021.28;296607;33;1581;-75
2023/06/10 00:13:56;;;;;;;368.53;235.37;;;;;;;20.63;85.58;99016.78;292874;33;5090;-75
2023/06/10 00:14:06;;;;;;;367.38;234.35;;;;;;;20.62;85.58;99015.09;287821;34;4776;-75
2023/06/10 00:14:17;;;;;;;366.97;234.07;;;;;;;20.63;85.88;99018.59;286392;34;742;-75
2023/06/10 00:14:27;;;;;;;367.42;237.10;;;;;;;20.63;85.28;99011.47;289248;34;3280;-75
2023/06/10 00:14:39;;;;;;;368.45;235.00;;;;;;;20.64;85.72;99018.47;290786;33;3311;-75
2023/06/10 00:14:51;;;;;;;370.13;234.07;;;;;;;20.62;85.56;99015.09;289564;33;4722;-75
2023/06/10 00:15:01;;;;;;;372.77;233.32;;;;;;;20.63;85.48;99010.63;285268;34;1624;-75
2023/06/10 00:15:12;;;;;;;368.92;232.90;;;;;;;20.63;85.59;99016.78;284194;34;5690;-76
2023/06/10 00:15:22;;;;;;;368.93;232.30;;;;;;;20.64;85.58;99020.28;283540;34;6388;-75
2023/06/10 00:15:33;;;;;;;366.20;228.27;;;;;;;20.63;85.19;99016.78;287163;34;884;-75
2023/06/10 00:15:43;;;;;;;366.75;230.80;;;;;;;20.63;85.63;99011.47;282452;35;2076;-75
2023/06/10 00:15:54;;;;;;;364.90;233.23;;;;;;;20.65;85.73;99016.66;280266;34;6717;-75
2023/06/10 00:16:04;;;;;;;364.03;234.57;;;;;;;20.64;85.24;99015.81;279920;35;7293;-75
2023/06/10 00:16:17;;;;;;;365.75;232.18;;;;;;;20.66;85.35;99016.50;280862;35;1104;-75
2023/06/10 00:16:27;;;;;;;366.73;230.73;;;;;;;20.66;85.24;99015.66;280660;35;6916;-75
2023/06/10 00:16:38;;;;;;;366.92;231.98;;;;;;;20.65;85.62;99012.16;278313;35;4998;-75
2023/06/10 00:16:49;;;;;;;366.08;236.85;;;;;;;20.65;85.53;99014.81;276820;35;5113;-75
2023/06/10 00:16:59;;;;;;;367.33;240.30;;;;;;;20.66;85.05;99016.50;277108;35;1517;-75
2023/06/10 00:17:10;;;;;;;367.15;241.43;;;;;;;20.65;85.37;99017.50;273834;35;7313;-76
2023/06/10 00:17:22;;;;;;;366.57;240.97;;;;;;;20.63;85.45;99011.47;271360;35;8316;-76
2023/06/10 00:17:33;;;;;;;367.70;236.75;;;;;;;20.62;84.98;99015.09;271938;35;8415;-76
2023/06/10 00:17:43;;;;;;;367.87;233.27;;;;;;;20.65;85.01;99014.00;269525;36;1245;-76
2023/06/10 00:17:54;;;;;;;369.60;232.90;;;;;;;20.64;84.97;99017.63;268690;36;9356;-76
2023/06/10 00:18:05;;;;;;;368.15;232.85;;;;;;;20.64;85.12;99015.81;267303;36;10053;-75
2023/06/10 00:18:16;;;;;;;367.55;235.25;;;;;;;20.63;85.17;99011.47;265437;37;1242;-76
2023/06/10 00:19:59;;;;;;;300.93;181.73;;;;;;;20.58;84.96;99011.88;2493138;27;20487;-75
2023/06/10 00:20:11;;;;;;;367.00;230.33;;;;;;;20.58;85.32;99013.72;352950;28;1230;-76
2023/06/10 00:20:23;;;;;;;368.38;230.32;;;;;;;20.57;85.56;99012.03;350063;28;1451;-76
2023/06/10 00:20:38;;;;;;;368.60;230.77;;;;;;;20.56;85.42;99010.34;348593;28;1382;-76
2023/06/10 00:20:52;;;;;;;365.98;230.18;;;;;;;20.57;85.40;99012.88;349978;28;1754;-75
2023/06/10 00:21:04;;;;;;;365.30;231.88;;;;;;;20.57;85.55;99006.72;348656;28;883;-75
2023/06/10 00:21:15;;;;;;;367.20;231.90;;;;;;;20.57;85.28;99006.72;347438;28;1395;-75
2023/06/10 00:21:26;;;;;;;365.73;230.23;;;;;;;20.57;85.35;99006.72;348787;28;835;-75
2023/06/10 00:21:40;;;;;;;363.85;229.13;;;;;;;20.59;85.39;99016.22;347757;28;1343;-75
2023/06/10 00:21:51;;;;;;;361.73;228.93;;;;;;;20.58;85.24;99011.88;348663;28;1366;-76
2023/06/10 00:22:01;;;;;;;362.98;229.27;;;;;;;20.58;85.62;99011.06;348762;28;2035;-76
2023/06/10 00:22:11;;;;;;;363.13;229.75;;;;;;;20.57;85.07;99001.41;347142;28;1767;-75
2023/06/10 00:22:22;;;;;;;361.73;229.50;;;;;;;20.56;85.33;99005.03;347188;28;1751;-75
2023/06/10 00:22:32;;;;;;;363.90;231.15;;;;;;;20.57;85.36;99012.03;346083;28;1837;-75
2023/06/10 00:22:45;;;;;;;365.30;229.83;;;;;;;20.57;85.39;99012.03;347601;28;591;-76
2023/06/10 00:22:58;;;;;;;363.08;227.13;;;;;;;20.55;85.66;99004.19;347457;28;1297;-75
2023/06/10 00:23:09;;;;;;;357.67;222.30;;;;;;;20.56;85.45;99008.53;345904;28;1291;-75
2023/06/10 00:23:19;;;;;;;356.83;223.82;;;;;;;20.56;85.73;99005.03;344867;28;1005;-75
2023/06/10 00:23:37;;;;;;;360.77;226.53;;;;;;;20.55;85.67;99008.66;345851;28;1723;-75
2023/06/10 00:23:48;;;;;;;358.30;222.93;;;;;;;20.54;85.39;99007.84;345985;28;1347;-76
2023/06/10 00:24:02;;;;;;;357.92;223.05;;;;;;;20.55;85.75;99003.34;344471;28;1626;-76
2023/06/10 00:24:12;;;;;;;362.63;228.60;;;;;;;20.54;85.47;99013.16;343719;28;1575;-76
2023/06/10 00:24:23;;;;;;;363.37;229.47;;;;;;;20.56;85.28;99005.88;343100;28;1352;-76
2023/06/10 00:24:33;;;;;;;363.85;231.55;;;;;;;20.56;85.72;99010.34;342064;28;892;-76
2023/06/10 00:24:43;;;;;;;362.70;232.03;;;;;;;20.54;85.90;99007.00;344741;28;799;-76
2023/06/10 00:24:54;;;;;;;364.02;233.80;;;;;;;20.55;85.58;99008.66;344752;28;912;-76
2023/06/10 00:25:05;;;;;;;362.30;228.27;;;;;;;20.52;85.35;99009.78;344630;28;1221;-76
2023/06/10 00:25:16;;;;;;;358.55;223.30;;;;;;;20.52;85.60;99017.75;344509;28;2915;-76
2023/06/10 00:25:27;;;;;;;359.77;224.13;;;;;;;20.52;85.86;99003.63;345960;28;832;-76
2023/06/10 00:25:37;;;;;;;362.40;226.13;;;;;;;20.54;85.49;99007.00;343715;28;1189;-76
2023/06/10 00:25:48;;;;;;;362.50;225.13;;;;;;;20.55;85.91;99008.66;343175;28;1215;-76
2023/06/10 00:25:59;;;;;;;363.58;227.15;;;;;;;20.55;85.90;99008.66;340640;29;1883;-76
2023/06/10 00:26:09;;;;;;;363.80;231.15;;;;;;;20.53;85.64;99010.63;339602;29;1643;-76
2023/06/10 00:26:20;;;;;;;362.45;233.05;;;;;;;20.54;85.94;99012.31;336948;29;1145;-76
2023/06/10 00:26:31;;;;;;;360.57;228.73;;;;;;;20.52;85.69;99015.09;337874;29;1348;-76
2023/06/10 00:26:41;;;;;;;359.42;228.32;;;;;;;20.53;85.96;99005.31;341479;28;1299;-76
2023/06/10 00:26:52;;;;;;;359.30;229.23;;;;;;;20.51;85.80;99009.94;340815;28;1153;-77
2023/06/10 00:27:03;;;;;;;360.17;231.65;;;;;;;20.52;85.85;99008.94;339357;29;1229;-76
2023/06/10 00:27:13;;;;;;;358.35;227.10;;;;;;;20.51;85.83;99012.59;339403;29;1297;-77
2023/06/10 00:27:24;;;;;;;358.63;223.73;;;;;;;20.49;86.08;99009.22;341971;28;1134;-76
2023/06/10 00:27:35;;;;;;;354.67;220.32;;;;;;;20.49;85.87;99009.22;342806;28;1436;-76
2023/06/10 00:27:45;;;;;;;357.60;223.53;;;;;;;20.45;86.26;99007.81;338961;29;1518;-77
2023/06/10 00:27:55;;;;;;;357.23;224.90;;;;;;;20.44;86.17;99007.00;337917;29;1777;-77
2023/06/10 00:28:06;;;;;;;357.17;225.20;;;;;;;20.45;86.33;99010.50;340407;28;1217;-76
2023/06/10 00:28:16;;;;;;;356.75;225.75;;;;;;;20.43;86.22;99007.97;337928;29;1449;-76
2023/06/10 00:28:27;;;;;;;359.77;224.77;;;;;;;20.43;86.26;99009.78;336515;29;1216;-75
2023/06/10 00:28:37;;;;;;;363.43;227.70;;;;;;;20.43;86.20;99015.94;340436;28;1595;-75
2023/06/10 00:28:48;;;;;;;363.08;224.98;;;;;;;20.43;86.37;99009.78;340508;29;1316;-75
2023/06/10 00:28:59;;;;;;;360.90;223.37;;;;;;;20.43;86.47;99009.78;336844;29;791;-75
2023/06/10 00:29:10;;;;;;;363.65;224.20;;;;;;;20.45;86.12;99013.16;330792;29;1580;-75
2023/06/10 00:29:20;;;;;;;367.50;229.60;;;;;;;20.44;86.37;99011.47;330847;29;1447;-75
2023/06/10 00:29:30;;;;;;;367.70;229.85;;;;;;;20.45;86.46;99010.50;330473;29;879;-76
2023/06/10 00:29:41;;;;;;;363.03;226.93;;;;;;;20.45;86.21;99013.16;330225;29;1181;-77
2023/06/10 00:29:51;;;;;;;363.60;226.53;;;;;;;20.45;86.67;99013.16;330067;29;1585;-76
2023/06/10 00:30:06;;;;;;;365.50;226.52;;;;;;;20.45;86.54;99015.81;330380;29;1289;-76
2023/06/10 00:30:17;;;;;;;362.85;224.13;;;;;;;20.44;86.45;99011.47;328076;30;1283;-76
2023/06/10 00:30:27;;;;;;;362.77;226.40;;;;;;;20.45;86.33;99021.13;328143;29;2970;-76
2023/06/10 00:30:37;;;;;;;363.87;231.20;;;;;;;20.45;86.61;99019.31;322158;30;3247;-76
2023/06/10 00:30:48;;;;;;;365.67;235.43;;;;;;;20.45;86.46;99007.81;319538;30;3210;-76
2023/06/10 00:30:58;;;;;;;367.98;234.07;;;;;;;20.45;86.29;99013.16;321546;30;1350;-76
2023/06/10 00:31:09;;;;;;;366.50;230.40;;;;;;;20.45;86.16;99016.66;321643;30;3298;-76
2023/06/10 00:31:19;;;;;;;366.40;229.40;;;;;;;20.45;86.17;99021.13;321638;30;867;-76
2023/06/10 00:31:30;;;;;;;365.27;228.90;;;;;;;20.44;86.55;99012.31;323143;30;1060;-76
2023/06/10 00:31:40;;;;;;;366.52;230.73;;;;;;;20.44;86.46;99016.78;325142;30;1199;-76
2023/06/10 00:31:53;;;;;;;365.87;229.40;;;;;;;20.44;86.48;99011.47;323617;30;1887;-76
2023/06/10 00:32:04;;;;;;;363.52;223.98;;;;;;;20.43;86.40;99017.75;319220;30;3058;-76
2023/06/10 00:32:14;;;;;;;365.67;226.25;;;;;;;20.43;86.29;99015.09;318446;30;1498;-76
2023/06/10 00:32:25;;;;;;;365.48;227.90;;;;;;;20.43;86.44;99015.94;317003;30;2319;-77
2023/06/10 00:32:36;;;;;;;363.80;230.50;;;;;;;20.42;86.39;99010.75;316244;30;2396;-76
2023/06/10 00:32:46;;;;;;;361.73;227.57;;;;;;;20.43;86.51;99015.09;318718;30;1932;-76
2023/06/10 00:32:56;;;;;;;363.77;228.80;;;;;;;20.43;86.88;99015.94;321140;30;2690;-76
2023/06/10 00:33:07;;;;;;;363.83;226.87;;;;;;;20.43;86.44;99020.41;320923;30;2801;-75
2023/06/10 00:33:17;;;;;;;362.42;224.20;;;;;;;20.42;86.28;99011.59;319541;30;1306;-75
2023/06/10 00:33:28;;;;;;;358.67;220.50;;;;;;;20.43;86.49;99012.44;319416;30;1872;-75
2023/06/10 00:33:38;;;;;;;360.90;222.48;;;;;;;20.43;86.37;99015.09;318756;30;1533;-76
2023/06/10 00:33:48;;;;;;;358.63;225.07;;;;;;;20.42;86.75;99013.41;320506;30;2727;-77
2023/06/10 00:33:59;;;;;;;357.90;226.30;;;;;;;20.42;86.67;99014.25;316479;31;1229;-75
2023/06/10 00:34:09;;;;;;;357.53;225.80;;;;;;;20.42;86.74;99019.56;313594;31;2603;-75
2023/06/10 00:34:20;;;;;;;360.63;226.10;;;;;;;20.43;86.75;99020.41;314370;30;2979;-75
2023/06/10 00:34:32;;;;;;;365.15;228.35;;;;;;;20.42;86.59;99013.41;318306;31;960;-75
2023/06/10 00:34:42;;;;;;;367.80;227.02;;;;;;;20.42;86.85;99014.25;314534;31;3300;-75
2023/06/10 00:34:52;;;;;;;367.97;226.10;;;;;;;20.43;86.68;99015.09;316021;30;3605;-75
2023/06/10 00:35:03;;;;;;;367.60;226.77;;;;;;;20.43;86.78;99010.63;317957;30;3615;-75
2023/06/10 00:35:14;;;;;;;366.70;229.05;;;;;;;20.43;86.63;99012.44;310487;31;1408;-75
2023/06/10 00:35:24;;;;;;;367.47;230.40;;;;;;;20.44;86.37;99011.47;314924;31;3597;-75
2023/06/10 00:35:35;;;;;;;367.50;229.60;;;;;;;20.44;86.66;99011.47;316024;30;2358;-75
2023/06/10 00:35:45;;;;;;;367.87;230.43;;;;;;;20.45;86.52;99013.97;314984;31;1033;-76
2023/06/10 00:35:56;;;;;;;366.75;227.75;;;;;;;20.45;86.32;99018.47;316311;31;1687;-75
2023/06/10 00:36:06;;;;;;;364.63;225.53;;;;;;;20.44;86.54;99014.97;313943;31;2795;-75
2023/06/10 00:36:17;;;;;;;364.55;224.18;;;;;;;20.45;86.46;99013.16;311689;31;866;-75
2023/06/10 00:36:28;;;;;;;365.63;228.77;;;;;;;20.45;86.28;99018.47;309825;31;3683;-77
2023/06/10 00:36:39;;;;;;;362.02;226.73;;;;;;;20.44;86.60;99012.31;309443;31;4167;-75
2023/06/10 00:36:50;;;;;;;359.80;224.93;;;;;;;20.44;86.67;99011.47;309882;31;4377;-75
2023/06/10 00:37:00;;;;;;;359.98;223.57;;;;;;;20.44;86.52;99011.47;308437;32;916;-75
2023/06/10 00:37:11;;;;;;;362.23;225.47;;;;;;;20.43;86.66;99010.63;307369;31;4427;-75
2023/06/10 00:37:22;;;;;;;362.20;225.07;;;;;;;20.44;86.70;99011.47;304662;32;4739;-75
2023/06/10 00:37:35;;;;;;;361.17;225.02;;;;;;;20.43;86.27;99010.63;304013;32;1327;-75
2023/06/10 00:37:45;;;;;;;361.58;224.23;;;;;;;20.44;86.70;99011.47;298011;33;1231;-75
2023/06/10 00:37:56;;;;;;;363.40;220.87;;;;;;;20.45;86.84;99013.16;300453;32;3428;-75
2023/06/10 00:38:06;;;;;;;365.00;223.43;;;;;;;20.42;86.57;99005.44;297706;33;3010;-75
2023/06/10 00:38:16;;;;;;;365.40;224.02;;;;;;;20.41;86.60;99007.25;297646;33;2043;-76
2023/06/10 00:38:27;;;;;;;362.87;226.90;;;;;;;20.40;86.25;99010.91;296826;33;4036;-76
2023/06/10 00:38:37;;;;;;;362.55;224.50;;;;;;;20.39;86.33;99008.38;295395;33;5182;-76
2023/06/10 00:38:48;;;;;;;365.83;226.00;;;;;;;20.38;86.74;99002.22;294950;33;847;-76
2023/06/10 00:38:58;;;;;;;368.77;226.10;;;;;;;20.38;86.56;99006.72;292907;33;1915;-76
2023/06/10 00:39:08;;;;;;;370.93;228.40;;;;;;;20.38;86.68;99006.72;291874;33;6083;-76
2023/06/10 00:39:19;;;;;;;368.17;229.73;;;;;;;20.39;86.52;99008.38;287979;33;5698;-75
2023/06/10 00:39:29;;;;;;;367.08;228.43;;;;;;;20.39;86.44;99008.38;287213;34;1466;-75
2023/06/10 00:39:40;;;;;;;365.43;227.00;;;;;;;20.38;86.96;99006.72;286014;34;6247;-75
2023/06/10 00:39:50;;;;;;;365.05;224.38;;;;;;;20.38;86.58;99014.69;284824;34;7054;-75
2023/06/10 00:40:02;;;;;;;364.60;226.03;;;;;;;20.38;86.56;99007.53;284146;34;3383;-75
2023/06/10 00:40:12;;;;;;;368.30;229.43;;;;;;;20.38;86.62;99012.03;279770;35;5206;-75
2023/06/10 00:40:22;;;;;;;370.03;233.27;;;;;;;20.38;86.54;99002.22;281698;34;5950;-75
2023/06/10 00:40:38;;;;;;;370.38;232.20;;;;;;;20.39;86.79;99003.06;282888;34;5831;-76
2023/06/10 00:40:49;;;;;;;364.85;230.95;;;;;;;20.39;86.50;99006.56;276916;34;6893;-76
2023/06/10 00:40:59;;;;;;;364.50;233.27;;;;;;;20.40;86.59;99004.75;279837;35;1933;-77
2023/06/10 00:41:10;;;;;;;363.52;232.07;;;;;;;20.39;86.64;99003.06;277111;35;8066;-77
2023/06/10 00:41:20;;;;;;;365.87;228.83;;;;;;;20.39;87.01;99008.38;275194;35;9506;-76
2023/06/10 00:41:31;;;;;;;365.73;225.10;;;;;;;20.38;86.70;99007.53;276391;35;941;-76
2023/06/10 00:41:41;;;;;;;364.40;226.10;;;;;;;20.38;86.65;99002.22;271388;36;7902;-76
2023/06/10 00:41:51;;;;;;;362.33;227.27;;;;;;;20.37;86.90;99000.50;269806;36;8388;-76
2023/06/10 00:42:06;;;;;;;366.77;230.85;;;;;;;20.37;86.79;99007.66;272846;36;1247;-76
2023/06/10 00:44:10;;;;;;;356.04;211.01;;;;;;;20.39;86.87;99008.38;2493116;27;20541;-75
2023/06/10 00:44:21;;;;;;;365.70;228.57;;;;;;;20.40;86.85;99012.72;352958;28;938;-75
2023/06/10 00:44:31;;;;;;;364.50;230.17;;;;;;;20.40;86.78;99008.25;349976;28;1503;-75
2023/06/10 00:44:42;;;;;;;364.88;230.75;;;;;;;20.39;86.51;99008.38;348740;28;1214;-75
2023/06/10 00:44:56;;;;;;;363.13;229.23;;;;;;;20.39;86.47;99005.72;350463;28;1643;-75
2023/06/10 00:45:08;;;;;;;362.38;226.75;;;;;;;20.40;86.31;99010.06;351458;28;1316;-75
2023/06/10 00:45:18;;;;;;;360.73;220.52;;;;;;;20.39;86.57;99006.56;348663;28;1609;-75
2023/06/10 00:45:28;;;;;;;360.17;222.65;;;;;;;20.40;86.72;99010.91;347412;28;1210;-75
2023/06/10 00:45:39;;;;;;;358.97;222.83;;;;;;;20.40;86.58;99010.06;347485;28;902;-75
2023/06/10 00:45:49;;;;;;;359.33;228.55;;;;;;;20.40;86.85;99005.59;346719;28;857;-75
2023/06/10 00:46:00;;;;;;;360.00;226.07;;;;;;;20.40;86.50;99007.41;347347;28;1207;-75
2023/06/10 00:46:11;;;;;;;358.63;225.50;;;;;;;20.40;86.47;99015.38;347377;28;1244;-77
2023/06/10 00:46:22;;;;;;;358.90;223.32;;;;;;;20.39;86.32;99009.22;348297;28;1588;-76
2023/06/10 00:46:33;;;;;;;358.70;224.98;;;;;;;20.39;86.33;99008.38;348259;28;1406;-76
2023/06/10 00:46:43;;;;;;;360.75;227.43;;;;;;;20.39;86.33;99011.88;350281;28;1061;-75
2023/06/10 00:46:55;;;;;;;361.80;229.73;;;;;;;20.40;86.30;99010.91;347461;28;1813;-75
2023/06/10 00:47:06;;;;;;;364.98;230.27;;;;;;;20.39;86.62;99008.38;348694;28;1390;-75
2023/06/10 00:47:16;;;;;;;364.98;229.80;;;;;;;20.37;86.71;99010.31;347377;28;1213;-75
2023/06/10 00:47:27;;;;;;;367.40;226.27;;;;;;;20.36;86.78;99012.13;345933;28;859;-75
2023/06/10 00:47:37;;;;;;;366.83;222.82;;;;;;;20.35;86.56;99009.63;344702;28;1089;-75
2023/06/10 00:47:48;;;;;;;368.73;224.17;;;;;;;20.33;86.68;99004.47;345831;28;1429;-75
2023/06/10 00:47:59;;;;;;;367.52;226.55;;;;;;;20.31;87.07;99016.22;345947;28;1220;-75
2023/06/10 00:48:09;;;;;;;368.63;229.10;;;;;;;20.28;87.33;99009.34;345227;28;1690;-75
2023/06/10 00:48:20;;;;;;;368.85;225.65;;;;;;;20.27;87.22;99010.31;346079;28;1129;-75
2023/06/10 00:48:30;;;;;;;367.80;226.07;;;;;;;20.25;87.24;99013.13;345091;28;1677;-76
2023/06/10 00:48:41;;;;;;;366.07;227.00;;;;;;;20.26;86.99;99008.66;345955;28;1303;-76
2023/06/10 00:48:52;;;;;;;363.52;228.75;;;;;;;20.26;87.48;99013.97;348681;28;3024;-76
2023/06/10 00:49:02;;;;;;;362.58;228.57;;;;;;;20.25;87.28;99007.81;345500;28;5363;-75
2023/06/10 00:49:12;;;;;;;363.67;227.57;;;;;;;20.25;87.05;99010.47;346778;28;5400;-76
2023/06/10 00:49:23;;;;;;;367.95;229.02;;;;;;;20.25;87.04;99013.13;346647;28;5866;-76
2023/06/10 00:49:33;;;;;;;370.77;227.10;;;;;;;20.26;87.25;99006.00;346759;28;3439;-76
2023/06/10 00:49:44;;;;;;;369.10;227.13;;;;;;;20.24;87.16;99011.44;346755;28;1339;-77
2023/06/10 00:49:54;;;;;;;365.97;227.93;;;;;;;20.22;87.43;99013.41;341928;28;868;-76
2023/06/10 00:50:06;;;;;;;365.42;228.18;;;;;;;20.22;87.26;99007.25;340882;28;1563;-76
2023/06/10 00:50:16;;;;;;;366.17;226.93;;;;;;;20.23;87.23;99004.44;342845;28;1003;-75
2023/06/10 00:50:27;;;;;;;363.63;224.15;;;;;;;20.21;87.54;99009.06;341917;28;1399;-75
2023/06/10 00:50:40;;;;;;;364.03;225.63;;;;;;;20.23;87.55;99004.44;343697;28;1201;-75
2023/06/10 00:50:51;;;;;;;364.33;226.90;;;;;;;20.23;87.54;99003.59;346991;28;1463;-75
2023/06/10 00:51:02;;;;;;;364.07;225.80;;;;;;;20.22;87.33;99002.78;344920;28;953;-75
2023/06/10 00:51:12;;;;;;;365.38;225.63;;;;;;;20.23;87.47;99006.28;344718;28;849;-75
2023/06/10 00:51:23;;;;;;;366.52;225.77;;;;;;;20.22;87.29;99013.41;344686;28;1208;-75
2023/06/10 00:51:34;;;;;;;366.77;226.10;;;;;;;20.22;87.23;99005.44;346426;28;932;-75
2023/06/10 00:51:45;;;;;;;365.80;228.40;;;;;;;20.23;87.21;99004.44;345929;28;847;-75
2023/06/10 00:51:55;;;;;;;365.23;228.53;;;;;;;20.21;87.34;98998.44;341742;28;1736;-75
2023/06/10 00:52:06;;;;;;;364.08;222.93;;;;;;;20.21;87.55;99006.41;342033;28;1384;-75
2023/06/10 00:52:16;;;;;;;360.97;217.93;;;;;;;20.22;87.49;99002.78;341128;28;1430;-75
2023/06/10 00:52:28;;;;;;;359.10;216.18;;;;;;;20.21;87.52;99001.09;334129;29;1585;-75
2023/06/10 00:52:38;;;;;;;359.85;223.82;;;;;;;20.22;87.42;99005.44;336092;29;1322;-77
2023/06/10 00:52:48;;;;;;;360.42;223.68;;;;;;;20.22;87.83;99002.78;336352;29;1780;-77
2023/06/10 00:52:59;;;;;;;360.07;224.60;;;;;;;20.21;87.55;99003.75;338035;29;1155;-77
2023/06/10 00:53:09;;;;;;;358.67;222.48;;;;;;;20.22;86.88;99005.44;341911;28;1355;-77
2023/06/10 00:53:20;;;;;;;359.80;224.33;;;;;;;20.20;87.89;99010.03;341357;28;995;-77
2023/06/10 00:53:31;;;;;;;360.15;224.57;;;;;;;20.21;87.30;99006.41;338029;29;2012;-76
2023/06/10 00:53:41;;;;;;;361.77;223.23;;;;;;;20.20;87.77;99004.72;340606;29;1778;-76
2023/06/10 00:53:52;;;;;;;360.13;223.27;;;;;;;20.19;87.53;99003.03;342261;28;1080;-76